sensor_id;sensor_type;location;lat;lon;timestamp;temperature;humidity
3380;DHT22;1703;51.964;7.642;2023-04-15T00:01:50;10.10;99.90
3380;DHT22;1703;51.964;7.642;2023-04-15T00:04:17;10.10;99.90
3380;DHT22;1703;51.964;7.642;2023-04-15T00:06:49;9.90;99.90
3380;DHT22;1703;51.964;7.642;2023-04-15T00:09:17;9.90;99.90
3380;DHT22;1703;51.964;7.642;2023-04-15T00:11:44;9.80;99.90
3380;DHT22;1703;51.964;7.642;2023-04-15T00:14:13;9.70;99.90
3380;DHT22;1703;51.964;7.642;2023-04-15T00:16:40;9.80;99.90
3380;DHT22;1703;51.964;7.642;2023-04-15T00:19:06;9.80;99.90
3380;DHT22;1703;51.964;7.642;2023-04-15T00:21:34;9.90;99.90
3380;DHT22;1703;51.964;7.642;2023-04-15T00:24:00;10.00;99.90
3380;DHT22;1703;51.964;7.642;2023-04-15T00:26:28;9.90;99.90
3380;DHT22;1703;51.964;7.642;2023-04-15T00:28:55;9.80;99.90
3380;DHT22;1703;51.964;7.642;2023-04-15T00:31:23;9.70;99.90
3380;DHT22;1703;51.964;7.642;2023-04-15T00:33:50;9.70;99.90
3380;DHT22;1703;51.964;7.642;2023-04-15T00:36:17;9.70;99.90
3380;DHT22;1703;51.964;7.642;2023-04-15T00:38:44;9.50;99.90
3380;DHT22;1703;51.964;7.642;2023-04-15T00:41:11;9.50;99.90
3380;DHT22;1703;51.964;7.642;2023-04-15T00:43:38;9.40;99.90
3380;DHT22;1703;51.964;7.642;2023-04-15T00:46:06;9.40;99.90
3380;DHT22;1703;51.964;7.642;2023-04-15T00:48:35;9.50;99.90
3380;DHT22;1703;51.964;7.642;2023-04-15T00:51:03;9.50;99.90
3380;DHT22;1703;51.964;7.642;2023-04-15T00:53:31;9.40;99.90
3380;DHT22;1703;51.964;7.642;2023-04-15T00:55:58;9.30;99.90
3380;DHT22;1703;51.964;7.642;2023-04-15T00:58:25;9.30;99.90
3380;DHT22;1703;51.964;7.642;2023-04-15T01:00:54;9.20;99.90
3380;DHT22;1703;51.964;7.642;2023-04-15T01:03:21;9.20;99.90
3380;DHT22;1703;51.964;7.642;2023-04-15T01:05:50;9.20;99.90
3380;DHT22;1703;51.964;7.642;2023-04-15T01:08:23;9.20;99.90
3380;DHT22;1703;51.964;7.642;2023-04-15T01:10:53;9.20;99.90
3380;DHT22;1703;51.964;7.642;2023-04-15T01:13:20;9.20;99.90
3380;DHT22;1703;51.964;7.642;2023-04-15T01:15:48;9.10;99.90
3380;DHT22;1703;51.964;7.642;2023-04-15T01:18:17;9.20;99.90
3380;DHT22;1703;51.964;7.642;2023-04-15T01:20:44;9.20;99.90
3380;DHT22;1703;51.964;7.642;2023-04-15T01:23:12;9.10;99.90
3380;DHT22;1703;51.964;7.642;2023-04-15T01:25:41;9.00;99.90
3380;DHT22;1703;51.964;7.642;2023-04-15T01:28:09;9.00;99.90
3380;DHT22;1703;51.964;7.642;2023-04-15T01:30:36;9.00;99.90
3380;DHT22;1703;51.964;7.642;2023-04-15T01:33:03;8.90;99.90
3380;DHT22;1703;51.964;7.642;2023-04-15T01:35:30;8.90;99.90
3380;DHT22;1703;51.964;7.642;2023-04-15T01:38:02;8.90;99.90
3380;DHT22;1703;51.964;7.642;2023-04-15T01:40:30;8.90;99.90
3380;DHT22;1703;51.964;7.642;2023-04-15T01:42:58;8.90;99.90
3380;DHT22;1703;51.964;7.642;2023-04-15T01:45:25;8.80;99.90
3380;DHT22;1703;51.964;7.642;2023-04-15T01:47:52;8.80;99.90
3380;DHT22;1703;51.964;7.642;2023-04-15T01:50:19;8.80;99.90
3380;DHT22;1703;51.964;7.642;2023-04-15T01:52:47;8.80;99.90
3380;DHT22;1703;51.964;7.642;2023-04-15T01:55:13;8.70;99.90
3380;DHT22;1703;51.964;7.642;2023-04-15T01:57:40;8.70;99.90
3380;DHT22;1703;51.964;7.642;2023-04-15T02:00:09;8.80;99.90
3380;DHT22;1703;51.964;7.642;2023-04-15T02:02:41;8.70;99.90
3380;DHT22;1703;51.964;7.642;2023-04-15T02:05:08;8.70;99.90
3380;DHT22;1703;51.964;7.642;2023-04-15T02:07:36;8.70;99.90
3380;DHT22;1703;51.964;7.642;2023-04-15T02:10:03;8.80;99.90
3380;DHT22;1703;51.964;7.642;2023-04-15T02:12:30;8.70;99.90
3380;DHT22;1703;51.964;7.642;2023-04-15T02:14:56;8.60;99.90
3380;DHT22;1703;51.964;7.642;2023-04-15T02:17:24;8.60;99.90
3380;DHT22;1703;51.964;7.642;2023-04-15T02:19:51;8.60;99.90
3380;DHT22;1703;51.964;7.642;2023-04-15T02:22:18;8.60;99.90
3380;DHT22;1703;51.964;7.642;2023-04-15T02:24:45;8.60;99.90
3380;DHT22;1703;51.964;7.642;2023-04-15T02:27:15;8.50;99.90
3380;DHT22;1703;51.964;7.642;2023-04-15T02:29:42;8.60;99.90
3380;DHT22;1703;51.964;7.642;2023-04-15T02:32:09;8.60;99.90
3380;DHT22;1703;51.964;7.642;2023-04-15T02:34:38;8.50;99.90
3380;DHT22;1703;51.964;7.642;2023-04-15T02:37:09;8.40;99.90
3380;DHT22;1703;51.964;7.642;2023-04-15T02:39:36;8.40;99.90
3380;DHT22;1703;51.964;7.642;2023-04-15T02:42:03;8.40;99.90
3380;DHT22;1703;51.964;7.642;2023-04-15T02:44:31;8.40;99.90
3380;DHT22;1703;51.964;7.642;2023-04-15T02:47:01;8.30;99.90
3380;DHT22;1703;51.964;7.642;2023-04-15T02:49:29;8.30;99.90
3380;DHT22;1703;51.964;7.642;2023-04-15T02:51:57;8.40;99.90
3380;DHT22;1703;51.964;7.642;2023-04-15T02:54:25;8.30;99.90
3380;DHT22;1703;51.964;7.642;2023-04-15T02:56:53;8.30;99.90
3380;DHT22;1703;51.964;7.642;2023-04-15T02:59:21;8.30;99.90
3380;DHT22;1703;51.964;7.642;2023-04-15T03:01:48;8.30;99.90
3380;DHT22;1703;51.964;7.642;2023-04-15T03:04:15;8.30;99.90
3380;DHT22;1703;51.964;7.642;2023-04-15T03:06:42;8.20;99.90
3380;DHT22;1703;51.964;7.642;2023-04-15T03:09:10;8.30;99.90
3380;DHT22;1703;51.964;7.642;2023-04-15T03:11:38;8.20;99.90
3380;DHT22;1703;51.964;7.642;2023-04-15T03:14:08;8.20;99.90
3380;DHT22;1703;51.964;7.642;2023-04-15T03:16:39;8.20;99.90
3380;DHT22;1703;51.964;7.642;2023-04-15T03:19:06;8.20;99.90
3380;DHT22;1703;51.964;7.642;2023-04-15T03:21:33;8.20;99.90
3380;DHT22;1703;51.964;7.642;2023-04-15T03:24:00;8.20;99.90
3380;DHT22;1703;51.964;7.642;2023-04-15T03:26:30;8.20;99.90
3380;DHT22;1703;51.964;7.642;2023-04-15T03:29:09;8.10;99.90
3380;DHT22;1703;51.964;7.642;2023-04-15T03:31:36;8.10;99.90
3380;DHT22;1703;51.964;7.642;2023-04-15T03:34:03;8.10;99.90
3380;DHT22;1703;51.964;7.642;2023-04-15T03:36:31;8.10;99.90
3380;DHT22;1703;51.964;7.642;2023-04-15T03:38:58;8.10;99.90
3380;DHT22;1703;51.964;7.642;2023-04-15T03:41:26;8.10;99.90
3380;DHT22;1703;51.964;7.642;2023-04-15T03:43:55;8.10;99.90
3380;DHT22;1703;51.964;7.642;2023-04-15T03:46:22;8.00;99.90
3380;DHT22;1703;51.964;7.642;2023-04-15T03:48:48;8.00;99.90
3380;DHT22;1703;51.964;7.642;2023-04-15T03:51:15;8.00;99.90
3380;DHT22;1703;51.964;7.642;2023-04-15T03:53:42;7.90;99.90
3380;DHT22;1703;51.964;7.642;2023-04-15T03:56:09;8.00;99.90
3380;DHT22;1703;51.964;7.642;2023-04-15T03:58:35;7.90;99.90
3380;DHT22;1703;51.964;7.642;2023-04-15T04:01:03;7.90;99.90
3380;DHT22;1703;51.964;7.642;2023-04-15T04:03:30;7.90;99.90
3380;DHT22;1703;51.964;7.642;2023-04-15T04:05:58;7.80;99.90
3380;DHT22;1703;51.964;7.642;2023-04-15T04:08:25;7.80;99.90
3380;DHT22;1703;51.964;7.642;2023-04-15T04:10:52;7.80;99.90
3380;DHT22;1703;51.964;7.642;2023-04-15T04:13:18;7.80;99.90
3380;DHT22;1703;51.964;7.642;2023-04-15T04:15:45;7.70;99.90
3380;DHT22;1703;51.964;7.642;2023-04-15T04:18:13;7.70;99.90
3380;DHT22;1703;51.964;7.642;2023-04-15T04:20:40;7.70;99.90
3380;DHT22;1703;51.964;7.642;2023-04-15T04:23:07;7.70;99.90
3380;DHT22;1703;51.964;7.642;2023-04-15T04:25:34;7.70;99.90
3380;DHT22;1703;51.964;7.642;2023-04-15T04:28:01;7.70;99.90
3380;DHT22;1703;51.964;7.642;2023-04-15T04:30:27;7.70;99.90
3380;DHT22;1703;51.964;7.642;2023-04-15T04:32:54;7.80;99.90
3380;DHT22;1703;51.964;7.642;2023-04-15T04:35:23;7.70;99.90
3380;DHT22;1703;51.964;7.642;2023-04-15T04:37:49;7.70;99.90
3380;DHT22;1703;51.964;7.642;2023-04-15T04:40:17;7.70;99.90
3380;DHT22;1703;51.964;7.642;2023-04-15T04:42:43;7.80;99.90
3380;DHT22;1703;51.964;7.642;2023-04-15T04:45:10;7.80;99.90
3380;DHT22;1703;51.964;7.642;2023-04-15T04:47:37;7.80;99.90
3380;DHT22;1703;51.964;7.642;2023-04-15T04:50:05;7.80;99.90
3380;DHT22;1703;51.964;7.642;2023-04-15T04:52:35;7.80;99.90
3380;DHT22;1703;51.964;7.642;2023-04-15T04:55:01;7.80;99.90
3380;DHT22;1703;51.964;7.642;2023-04-15T04:57:28;7.80;99.90
3380;DHT22;1703;51.964;7.642;2023-04-15T04:59:55;7.90;99.90
3380;DHT22;1703;51.964;7.642;2023-04-15T05:02:22;8.00;99.90
3380;DHT22;1703;51.964;7.642;2023-04-15T05:04:51;8.00;99.90
3380;DHT22;1703;51.964;7.642;2023-04-15T05:07:19;7.90;99.90
3380;DHT22;1703;51.964;7.642;2023-04-15T05:09:47;7.90;99.90
3380;DHT22;1703;51.964;7.642;2023-04-15T05:12:14;8.00;99.90
3380;DHT22;1703;51.964;7.642;2023-04-15T05:14:41;8.10;99.90
3380;DHT22;1703;51.964;7.642;2023-04-15T05:17:08;8.10;99.90
3380;DHT22;1703;51.964;7.642;2023-04-15T05:19:35;8.20;99.90
3380;DHT22;1703;51.964;7.642;2023-04-15T05:22:02;8.10;99.90
3380;DHT22;1703;51.964;7.642;2023-04-15T05:24:29;8.00;99.90
3380;DHT22;1703;51.964;7.642;2023-04-15T05:26:58;8.10;99.90
3380;DHT22;1703;51.964;7.642;2023-04-15T05:29:26;8.10;99.90
3380;DHT22;1703;51.964;7.642;2023-04-15T05:31:53;8.20;99.90
3380;DHT22;1703;51.964;7.642;2023-04-15T05:34:19;8.20;99.90
3380;DHT22;1703;51.964;7.642;2023-04-15T05:36:47;8.20;99.90
3380;DHT22;1703;51.964;7.642;2023-04-15T05:39:14;8.20;99.90
3380;DHT22;1703;51.964;7.642;2023-04-15T05:41:41;8.30;99.90
3380;DHT22;1703;51.964;7.642;2023-04-15T05:44:09;8.30;99.90
3380;DHT22;1703;51.964;7.642;2023-04-15T05:46:36;8.40;99.90
3380;DHT22;1703;51.964;7.642;2023-04-15T05:49:03;8.50;99.90
3380;DHT22;1703;51.964;7.642;2023-04-15T05:51:30;8.50;99.90
3380;DHT22;1703;51.964;7.642;2023-04-15T05:53:56;8.50;99.90
3380;DHT22;1703;51.964;7.642;2023-04-15T05:56:23;8.50;99.90
3380;DHT22;1703;51.964;7.642;2023-04-15T05:58:52;8.60;99.90
3380;DHT22;1703;51.964;7.642;2023-04-15T06:01:20;8.70;99.90
3380;DHT22;1703;51.964;7.642;2023-04-15T06:03:47;8.60;99.90
3380;DHT22;1703;51.964;7.642;2023-04-15T06:06:14;8.70;99.90
3380;DHT22;1703;51.964;7.642;2023-04-15T06:08:41;8.70;99.90
3380;DHT22;1703;51.964;7.642;2023-04-15T06:11:08;8.80;99.90
3380;DHT22;1703;51.964;7.642;2023-04-15T06:13:35;8.80;99.90
3380;DHT22;1703;51.964;7.642;2023-04-15T06:16:02;8.80;99.90
3380;DHT22;1703;51.964;7.642;2023-04-15T06:18:30;8.80;99.90
3380;DHT22;1703;51.964;7.642;2023-04-15T06:20:57;8.80;99.90
3380;DHT22;1703;51.964;7.642;2023-04-15T06:23:24;8.90;99.90
3380;DHT22;1703;51.964;7.642;2023-04-15T06:25:51;8.90;99.90
3380;DHT22;1703;51.964;7.642;2023-04-15T06:28:18;8.90;99.90
3380;DHT22;1703;51.964;7.642;2023-04-15T06:30:45;8.90;99.90
3380;DHT22;1703;51.964;7.642;2023-04-15T06:33:11;9.00;99.90
3380;DHT22;1703;51.964;7.642;2023-04-15T06:35:40;9.00;99.90
3380;DHT22;1703;51.964;7.642;2023-04-15T06:38:06;8.90;99.90
3380;DHT22;1703;51.964;7.642;2023-04-15T06:40:33;8.90;99.90
3380;DHT22;1703;51.964;7.642;2023-04-15T06:43:00;9.00;99.90
3380;DHT22;1703;51.964;7.642;2023-04-15T06:45:27;8.90;99.90
3380;DHT22;1703;51.964;7.642;2023-04-15T06:47:54;8.90;99.90
3380;DHT22;1703;51.964;7.642;2023-04-15T06:50:21;8.90;99.90
3380;DHT22;1703;51.964;7.642;2023-04-15T06:52:49;8.90;99.90
3380;DHT22;1703;51.964;7.642;2023-04-15T06:55:16;8.90;99.90
3380;DHT22;1703;51.964;7.642;2023-04-15T06:57:43;8.90;99.90
3380;DHT22;1703;51.964;7.642;2023-04-15T07:00:11;9.00;99.90
3380;DHT22;1703;51.964;7.642;2023-04-15T07:02:38;9.00;99.90
3380;DHT22;1703;51.964;7.642;2023-04-15T07:05:05;9.10;99.90
3380;DHT22;1703;51.964;7.642;2023-04-15T07:07:33;9.10;99.90
3380;DHT22;1703;51.964;7.642;2023-04-15T07:10:01;9.20;99.90
3380;DHT22;1703;51.964;7.642;2023-04-15T07:12:29;9.20;99.90
3380;DHT22;1703;51.964;7.642;2023-04-15T07:14:55;9.30;99.90
3380;DHT22;1703;51.964;7.642;2023-04-15T07:17:22;9.30;99.90
3380;DHT22;1703;51.964;7.642;2023-04-15T07:19:49;9.40;99.90
3380;DHT22;1703;51.964;7.642;2023-04-15T07:22:16;9.50;99.90
3380;DHT22;1703;51.964;7.642;2023-04-15T07:24:43;9.50;99.90
3380;DHT22;1703;51.964;7.642;2023-04-15T07:27:11;9.60;99.90
3380;DHT22;1703;51.964;7.642;2023-04-15T07:29:38;9.60;99.90
3380;DHT22;1703;51.964;7.642;2023-04-15T07:32:05;9.60;99.90
3380;DHT22;1703;51.964;7.642;2023-04-15T07:34:31;9.60;99.90
3380;DHT22;1703;51.964;7.642;2023-04-15T07:36:58;9.70;99.90
3380;DHT22;1703;51.964;7.642;2023-04-15T07:39:26;9.70;99.90
3380;DHT22;1703;51.964;7.642;2023-04-15T07:41:53;9.70;99.90
3380;DHT22;1703;51.964;7.642;2023-04-15T07:44:22;9.90;99.90
3380;DHT22;1703;51.964;7.642;2023-04-15T07:46:49;10.00;99.90
3380;DHT22;1703;51.964;7.642;2023-04-15T07:49:15;10.10;99.90
3380;DHT22;1703;51.964;7.642;2023-04-15T07:51:43;9.90;99.90
3380;DHT22;1703;51.964;7.642;2023-04-15T07:54:10;10.00;99.90
3380;DHT22;1703;51.964;7.642;2023-04-15T07:56:37;10.00;99.90
3380;DHT22;1703;51.964;7.642;2023-04-15T07:59:04;10.20;99.90
3380;DHT22;1703;51.964;7.642;2023-04-15T08:01:33;10.20;99.90
3380;DHT22;1703;51.964;7.642;2023-04-15T08:03:59;10.20;99.90
3380;DHT22;1703;51.964;7.642;2023-04-15T08:06:26;10.10;99.90
3380;DHT22;1703;51.964;7.642;2023-04-15T08:08:53;10.20;99.90
3380;DHT22;1703;51.964;7.642;2023-04-15T08:11:20;10.20;99.90
3380;DHT22;1703;51.964;7.642;2023-04-15T08:13:49;10.20;99.90
3380;DHT22;1703;51.964;7.642;2023-04-15T08:16:18;10.30;99.90
3380;DHT22;1703;51.964;7.642;2023-04-15T08:18:47;10.20;99.90
3380;DHT22;1703;51.964;7.642;2023-04-15T08:21:14;10.20;99.90
3380;DHT22;1703;51.964;7.642;2023-04-15T08:23:42;10.10;99.90
3380;DHT22;1703;51.964;7.642;2023-04-15T08:26:09;10.10;99.90
3380;DHT22;1703;51.964;7.642;2023-04-15T08:28:38;10.00;99.90
3380;DHT22;1703;51.964;7.642;2023-04-15T08:31:05;10.00;99.90
3380;DHT22;1703;51.964;7.642;2023-04-15T08:33:32;10.00;99.90
3380;DHT22;1703;51.964;7.642;2023-04-15T08:36:00;10.10;99.90
3380;DHT22;1703;51.964;7.642;2023-04-15T08:38:27;10.10;99.90
3380;DHT22;1703;51.964;7.642;2023-04-15T08:40:55;10.00;99.90
3380;DHT22;1703;51.964;7.642;2023-04-15T08:43:26;10.00;99.90
3380;DHT22;1703;51.964;7.642;2023-04-15T08:45:55;10.10;99.90
3380;DHT22;1703;51.964;7.642;2023-04-15T08:48:28;10.20;99.90
3380;DHT22;1703;51.964;7.642;2023-04-15T08:50:55;10.00;99.90
3380;DHT22;1703;51.964;7.642;2023-04-15T08:53:23;10.20;99.90
3380;DHT22;1703;51.964;7.642;2023-04-15T08:55:51;10.10;99.90
3380;DHT22;1703;51.964;7.642;2023-04-15T08:58:18;10.10;99.90
3380;DHT22;1703;51.964;7.642;2023-04-15T09:00:45;10.10;99.90
3380;DHT22;1703;51.964;7.642;2023-04-15T09:03:13;10.20;99.90
3380;DHT22;1703;51.964;7.642;2023-04-15T09:05:40;10.20;99.90
3380;DHT22;1703;51.964;7.642;2023-04-15T09:08:07;10.30;99.90
3380;DHT22;1703;51.964;7.642;2023-04-15T09:10:36;10.40;99.90
3380;DHT22;1703;51.964;7.642;2023-04-15T09:13:03;10.40;99.90
3380;DHT22;1703;51.964;7.642;2023-04-15T09:15:31;10.40;99.90
3380;DHT22;1703;51.964;7.642;2023-04-15T09:17:58;10.50;99.90
3380;DHT22;1703;51.964;7.642;2023-04-15T09:20:25;10.60;99.90
3380;DHT22;1703;51.964;7.642;2023-04-15T09:22:52;10.50;99.90
3380;DHT22;1703;51.964;7.642;2023-04-15T09:25:27;10.50;99.90
3380;DHT22;1703;51.964;7.642;2023-04-15T09:27:57;10.50;99.90
3380;DHT22;1703;51.964;7.642;2023-04-15T09:30:24;10.40;99.90
3380;DHT22;1703;51.964;7.642;2023-04-15T09:32:52;10.40;99.90
3380;DHT22;1703;51.964;7.642;2023-04-15T09:35:19;10.30;99.90
3380;DHT22;1703;51.964;7.642;2023-04-15T09:37:47;10.30;99.90
3380;DHT22;1703;51.964;7.642;2023-04-15T09:40:13;10.30;99.90
3380;DHT22;1703;51.964;7.642;2023-04-15T09:42:57;10.40;99.90
3380;DHT22;1703;51.964;7.642;2023-04-15T09:45:25;10.40;99.90
3380;DHT22;1703;51.964;7.642;2023-04-15T09:47:52;10.40;99.90
3380;DHT22;1703;51.964;7.642;2023-04-15T09:50:18;10.50;99.90
3380;DHT22;1703;51.964;7.642;2023-04-15T09:52:46;10.60;99.90
3380;DHT22;1703;51.964;7.642;2023-04-15T09:55:13;10.70;99.90
3380;DHT22;1703;51.964;7.642;2023-04-15T09:57:41;10.80;99.90
3380;DHT22;1703;51.964;7.642;2023-04-15T10:00:11;10.80;99.90
3380;DHT22;1703;51.964;7.642;2023-04-15T10:02:39;10.90;99.90
3380;DHT22;1703;51.964;7.642;2023-04-15T10:05:08;10.90;99.90
3380;DHT22;1703;51.964;7.642;2023-04-15T10:07:37;11.00;99.90
3380;DHT22;1703;51.964;7.642;2023-04-15T10:10:06;11.00;99.90
3380;DHT22;1703;51.964;7.642;2023-04-15T10:12:36;11.00;99.90
3380;DHT22;1703;51.964;7.642;2023-04-15T10:15:04;10.90;99.90
3380;DHT22;1703;51.964;7.642;2023-04-15T10:17:33;10.80;99.90
3380;DHT22;1703;51.964;7.642;2023-04-15T10:20:02;10.90;99.90
3380;DHT22;1703;51.964;7.642;2023-04-15T10:22:31;10.80;99.90
3380;DHT22;1703;51.964;7.642;2023-04-15T10:24:58;10.80;99.90
3380;DHT22;1703;51.964;7.642;2023-04-15T10:27:26;10.90;99.90
3380;DHT22;1703;51.964;7.642;2023-04-15T10:29:53;11.00;99.90
3380;DHT22;1703;51.964;7.642;2023-04-15T10:32:21;11.10;99.90
3380;DHT22;1703;51.964;7.642;2023-04-15T10:34:51;11.10;99.90
3380;DHT22;1703;51.964;7.642;2023-04-15T10:37:22;11.10;99.90
3380;DHT22;1703;51.964;7.642;2023-04-15T10:39:49;11.10;99.90
3380;DHT22;1703;51.964;7.642;2023-04-15T10:42:17;11.00;99.90
3380;DHT22;1703;51.964;7.642;2023-04-15T10:44:48;11.10;99.90
3380;DHT22;1703;51.964;7.642;2023-04-15T10:47:17;11.10;99.90
3380;DHT22;1703;51.964;7.642;2023-04-15T10:49:47;11.20;99.90
3380;DHT22;1703;51.964;7.642;2023-04-15T10:52:20;11.20;99.90
3380;DHT22;1703;51.964;7.642;2023-04-15T10:54:48;11.20;99.90
3380;DHT22;1703;51.964;7.642;2023-04-15T10:57:20;11.20;99.90
3380;DHT22;1703;51.964;7.642;2023-04-15T11:00:11;11.20;99.90
3380;DHT22;1703;51.964;7.642;2023-04-15T11:02:43;11.30;99.90
3380;DHT22;1703;51.964;7.642;2023-04-15T11:05:10;11.40;99.90
3380;DHT22;1703;51.964;7.642;2023-04-15T11:07:51;11.30;99.90
3380;DHT22;1703;51.964;7.642;2023-04-15T11:10:52;11.30;99.90
3380;DHT22;1703;51.964;7.642;2023-04-15T11:13:23;11.20;99.90
3380;DHT22;1703;51.964;7.642;2023-04-15T11:15:58;11.20;99.90
3380;DHT22;1703;51.964;7.642;2023-04-15T11:18:27;11.30;99.90
3380;DHT22;1703;51.964;7.642;2023-04-15T11:20:57;11.30;99.90
3380;DHT22;1703;51.964;7.642;2023-04-15T11:23:34;11.40;99.90
3380;DHT22;1703;51.964;7.642;2023-04-15T11:26:02;11.40;99.90
3380;DHT22;1703;51.964;7.642;2023-04-15T11:28:31;11.30;99.90
3380;DHT22;1703;51.964;7.642;2023-04-15T11:31:05;11.30;99.90
3380;DHT22;1703;51.964;7.642;2023-04-15T11:33:33;11.30;99.90
3380;DHT22;1703;51.964;7.642;2023-04-15T11:36:00;11.20;99.90
3380;DHT22;1703;51.964;7.642;2023-04-15T11:38:26;11.10;99.90
3380;DHT22;1703;51.964;7.642;2023-04-15T11:40:55;11.20;99.90
3380;DHT22;1703;51.964;7.642;2023-04-15T11:43:22;11.30;99.90
3380;DHT22;1703;51.964;7.642;2023-04-15T11:45:51;11.20;99.90
3380;DHT22;1703;51.964;7.642;2023-04-15T11:48:19;11.00;99.90
3380;DHT22;1703;51.964;7.642;2023-04-15T11:50:52;11.10;99.90
3380;DHT22;1703;51.964;7.642;2023-04-15T11:53:19;10.90;99.90
3380;DHT22;1703;51.964;7.642;2023-04-15T11:55:48;11.00;99.90
3380;DHT22;1703;51.964;7.642;2023-04-15T11:58:18;11.10;99.90
3380;DHT22;1703;51.964;7.642;2023-04-15T12:00:47;11.20;99.90
3380;DHT22;1703;51.964;7.642;2023-04-15T12:03:17;11.20;99.90
3380;DHT22;1703;51.964;7.642;2023-04-15T12:06:10;11.30;99.90
3380;DHT22;1703;51.964;7.642;2023-04-15T12:08:51;11.10;99.90
3380;DHT22;1703;51.964;7.642;2023-04-15T12:11:19;11.00;99.90
3380;DHT22;1703;51.964;7.642;2023-04-15T12:13:49;11.00;99.90
3380;DHT22;1703;51.964;7.642;2023-04-15T12:16:16;11.00;99.90
3380;DHT22;1703;51.964;7.642;2023-04-15T12:18:45;11.10;99.90
3380;DHT22;1703;51.964;7.642;2023-04-15T12:21:13;11.20;99.90
3380;DHT22;1703;51.964;7.642;2023-04-15T12:23:47;11.10;99.90
3380;DHT22;1703;51.964;7.642;2023-04-15T12:26:16;11.20;99.90
3380;DHT22;1703;51.964;7.642;2023-04-15T12:28:43;11.20;99.90
3380;DHT22;1703;51.964;7.642;2023-04-15T12:31:11;11.10;99.90
3380;DHT22;1703;51.964;7.642;2023-04-15T12:33:40;11.10;99.90
3380;DHT22;1703;51.964;7.642;2023-04-15T12:36:06;11.20;99.90
3380;DHT22;1703;51.964;7.642;2023-04-15T12:38:33;11.20;99.90
3380;DHT22;1703;51.964;7.642;2023-04-15T12:41:00;11.30;99.90
3380;DHT22;1703;51.964;7.642;2023-04-15T12:43:27;11.40;99.90
3380;DHT22;1703;51.964;7.642;2023-04-15T12:45:54;11.50;99.90
3380;DHT22;1703;51.964;7.642;2023-04-15T12:48:22;11.50;99.90
3380;DHT22;1703;51.964;7.642;2023-04-15T12:50:49;11.60;99.90
3380;DHT22;1703;51.964;7.642;2023-04-15T12:53:17;11.60;99.90
3380;DHT22;1703;51.964;7.642;2023-04-15T12:55:43;11.70;99.90
3380;DHT22;1703;51.964;7.642;2023-04-15T12:58:10;11.60;99.90
3380;DHT22;1703;51.964;7.642;2023-04-15T13:00:37;11.60;99.90
3380;DHT22;1703;51.964;7.642;2023-04-15T13:03:04;11.50;99.90
3380;DHT22;1703;51.964;7.642;2023-04-15T13:05:32;11.50;99.90
3380;DHT22;1703;51.964;7.642;2023-04-15T13:08:01;11.30;99.90
3380;DHT22;1703;51.964;7.642;2023-04-15T13:10:28;11.30;99.90
3380;DHT22;1703;51.964;7.642;2023-04-15T13:12:56;11.30;99.90
3380;DHT22;1703;51.964;7.642;2023-04-15T13:15:23;11.30;99.90
3380;DHT22;1703;51.964;7.642;2023-04-15T13:17:50;11.30;99.90
3380;DHT22;1703;51.964;7.642;2023-04-15T13:20:17;11.30;99.90
3380;DHT22;1703;51.964;7.642;2023-04-15T13:22:45;11.30;99.90
3380;DHT22;1703;51.964;7.642;2023-04-15T13:25:12;11.30;99.90
3380;DHT22;1703;51.964;7.642;2023-04-15T13:27:39;11.30;99.90
3380;DHT22;1703;51.964;7.642;2023-04-15T13:30:07;11.20;99.90
3380;DHT22;1703;51.964;7.642;2023-04-15T13:32:34;11.20;99.90
3380;DHT22;1703;51.964;7.642;2023-04-15T13:35:01;11.30;99.90
3380;DHT22;1703;51.964;7.642;2023-04-15T13:37:30;11.30;99.90
3380;DHT22;1703;51.964;7.642;2023-04-15T13:39:58;11.30;99.90
3380;DHT22;1703;51.964;7.642;2023-04-15T13:42:25;11.40;99.90
3380;DHT22;1703;51.964;7.642;2023-04-15T13:44:52;11.30;99.90
3380;DHT22;1703;51.964;7.642;2023-04-15T13:47:19;11.20;99.90
3380;DHT22;1703;51.964;7.642;2023-04-15T13:49:46;11.20;99.90
3380;DHT22;1703;51.964;7.642;2023-04-15T13:52:13;11.20;99.90
3380;DHT22;1703;51.964;7.642;2023-04-15T13:54:40;11.10;99.90
3380;DHT22;1703;51.964;7.642;2023-04-15T13:57:09;11.30;99.90
3380;DHT22;1703;51.964;7.642;2023-04-15T13:59:36;11.30;99.90
3380;DHT22;1703;51.964;7.642;2023-04-15T14:02:03;11.10;99.90
3380;DHT22;1703;51.964;7.642;2023-04-15T14:04:30;11.10;99.90
3380;DHT22;1703;51.964;7.642;2023-04-15T14:06:57;11.10;99.90
3380;DHT22;1703;51.964;7.642;2023-04-15T14:09:23;11.20;99.90
3380;DHT22;1703;51.964;7.642;2023-04-15T14:11:50;11.20;99.90
3380;DHT22;1703;51.964;7.642;2023-04-15T14:14:18;11.20;99.90
3380;DHT22;1703;51.964;7.642;2023-04-15T14:16:45;11.10;99.90
3380;DHT22;1703;51.964;7.642;2023-04-15T14:19:13;11.10;99.90
3380;DHT22;1703;51.964;7.642;2023-04-15T14:21:40;11.10;99.90
3380;DHT22;1703;51.964;7.642;2023-04-15T14:24:07;10.90;99.90
3380;DHT22;1703;51.964;7.642;2023-04-15T14:26:34;10.90;99.90
3380;DHT22;1703;51.964;7.642;2023-04-15T14:29:01;10.90;99.90
3380;DHT22;1703;51.964;7.642;2023-04-15T14:31:29;10.90;99.90
3380;DHT22;1703;51.964;7.642;2023-04-15T14:33:56;10.80;99.90
3380;DHT22;1703;51.964;7.642;2023-04-15T14:36:23;10.80;99.90
3380;DHT22;1703;51.964;7.642;2023-04-15T14:38:50;10.80;99.90
3380;DHT22;1703;51.964;7.642;2023-04-15T14:41:17;10.80;99.90
3380;DHT22;1703;51.964;7.642;2023-04-15T14:43:44;10.60;99.90
3380;DHT22;1703;51.964;7.642;2023-04-15T14:46:10;10.60;99.90
3380;DHT22;1703;51.964;7.642;2023-04-15T14:48:40;10.50;99.90
3380;DHT22;1703;51.964;7.642;2023-04-15T14:51:07;10.50;99.90
3380;DHT22;1703;51.964;7.642;2023-04-15T14:53:34;10.60;99.90
3380;DHT22;1703;51.964;7.642;2023-04-15T14:56:01;10.60;99.90
3380;DHT22;1703;51.964;7.642;2023-04-15T14:58:28;10.60;99.90
3380;DHT22;1703;51.964;7.642;2023-04-15T15:00:55;10.60;99.90
3380;DHT22;1703;51.964;7.642;2023-04-15T15:03:22;10.50;99.90
3380;DHT22;1703;51.964;7.642;2023-04-15T15:05:50;10.60;99.90
3380;DHT22;1703;51.964;7.642;2023-04-15T15:08:17;10.50;99.90
3380;DHT22;1703;51.964;7.642;2023-04-15T15:10:44;10.50;99.90
3380;DHT22;1703;51.964;7.642;2023-04-15T15:13:11;10.50;99.90
3380;DHT22;1703;51.964;7.642;2023-04-15T15:15:38;10.60;99.90
3380;DHT22;1703;51.964;7.642;2023-04-15T15:18:05;10.50;99.90
3380;DHT22;1703;51.964;7.642;2023-04-15T15:20:32;10.60;99.90
3380;DHT22;1703;51.964;7.642;2023-04-15T15:23:01;10.60;99.90
3380;DHT22;1703;51.964;7.642;2023-04-15T15:25:28;10.60;99.90
3380;DHT22;1703;51.964;7.642;2023-04-15T15:27:55;10.60;99.90
3380;DHT22;1703;51.964;7.642;2023-04-15T15:30:22;10.50;99.90
3380;DHT22;1703;51.964;7.642;2023-04-15T15:32:50;10.60;99.90
3380;DHT22;1703;51.964;7.642;2023-04-15T15:35:17;10.50;99.90
3380;DHT22;1703;51.964;7.642;2023-04-15T15:37:44;10.50;99.90
3380;DHT22;1703;51.964;7.642;2023-04-15T15:40:13;10.60;99.90
3380;DHT22;1703;51.964;7.642;2023-04-15T15:42:40;10.60;99.90
3380;DHT22;1703;51.964;7.642;2023-04-15T15:45:07;10.60;99.90
3380;DHT22;1703;51.964;7.642;2023-04-15T15:47:34;10.60;99.90
3380;DHT22;1703;51.964;7.642;2023-04-15T15:50:01;10.60;99.90
3380;DHT22;1703;51.964;7.642;2023-04-15T15:52:28;10.70;99.90
3380;DHT22;1703;51.964;7.642;2023-04-15T15:54:55;10.50;99.90
3380;DHT22;1703;51.964;7.642;2023-04-15T15:57:23;10.60;99.90
3380;DHT22;1703;51.964;7.642;2023-04-15T15:59:50;10.60;99.90
3380;DHT22;1703;51.964;7.642;2023-04-15T16:02:17;10.60;99.90
3380;DHT22;1703;51.964;7.642;2023-04-15T16:04:44;10.50;99.90
3380;DHT22;1703;51.964;7.642;2023-04-15T16:07:10;10.60;99.90
3380;DHT22;1703;51.964;7.642;2023-04-15T16:09:39;10.60;99.90
3380;DHT22;1703;51.964;7.642;2023-04-15T16:12:07;10.60;99.90
3380;DHT22;1703;51.964;7.642;2023-04-15T16:14:35;10.60;99.90